Tipton Airport
KFME : now visible

Airfield :











YOU CAN JOIN US ON...

 
LOGIN :

Register | Disclaimer

   EN    FR    IT 

 









Legend :    VFR   Marginal VFR   IFR   Intensive IFR   Very Intensive IFR
Visi :
Ceiling :
>= 8 km
>= 3000ft
5 to 8 km
1000 to 3000 ft
1500m to 5 km
500 to 1000 ft
800 to 1500m
200 to 500 ft
< 800m
< 200 ft
Symbols :   Thunderstorms  Fog  Heavy snow  Heavy precipitations  Wind > 20 kt







- Airport Elevation : 150 ft


KFME - Tipton

CURRENT METAR :
  • 261542Z AUTO 16007KT 10SM SCT100 19/17 A2953 RMK AO1

EXPIRED METARs :
  • 261521Z AUTO 14006KT 10SM BKN100 BKN120 17/16 A2955 RMK AO1
  • 261500Z AUTO 12004KT 10SM BKN100 17/16 A2956 RMK AO1
  • 261442Z AUTO 00000KT 10SM SCT100 SCT120 16/15 A2958 RMK AO1
  • 261421Z AUTO 17005KT 10SM BKN100 BKN120 16/15 A2960 RMK AO1
  • 261400Z AUTO 15003KT 10SM SCT110 16/15 A2960 RMK AO1
  • 261342Z AUTO 15003KT 7SM SCT009 SCT095 SCT120 15/15 A2962 RMK AO1
  • 261321Z AUTO 14003KT 7SM BKN009 BKN070 15/14 A2964 RMK AO1

TAF N/A
KZDC FIR / North America



MET'MAP, your aeronautical weather chart ! - Copyright ORBIFLY December 2007 - Disclaimer

ORBIFLY MET'MAP TEAM :

Programming & Development : Alexandra Zaïnal
Concept & Development : Baudouin d'Aumeries
Co-Development & Prog : Marc-Olivier Méhu
Technical & hardware support : Manuel Goepfert

Contact : metmap@orbifly.com




SOURCES & CREDITS :

   NOAA       Earth
Advisory